sensor_id;sensor_type;location;lat;lon;timestamp;temperature;humidity
4293;DHT22;2160;51.172;6.808;2023-01-30T00:00:09;6.50;99.90
4293;DHT22;2160;51.172;6.808;2023-01-30T05:02:20;7.90;99.90
4293;DHT22;2160;51.172;6.808;2023-01-30T05:04:48;8.00;99.90
4293;DHT22;2160;51.172;6.808;2023-01-30T05:07:15;8.10;99.90
4293;DHT22;2160;51.172;6.808;2023-01-30T05:09:42;7.90;99.90
4293;DHT22;2160;51.172;6.808;2023-01-30T05:12:09;8.00;99.90
4293;DHT22;2160;51.172;6.808;2023-01-30T05:14:36;7.90;99.90
4293;DHT22;2160;51.172;6.808;2023-01-30T05:17:06;8.00;99.90
4293;DHT22;2160;51.172;6.808;2023-01-30T05:19:34;8.10;99.90
4293;DHT22;2160;51.172;6.808;2023-01-30T05:22:01;8.00;99.90
4293;DHT22;2160;51.172;6.808;2023-01-30T05:24:28;8.00;99.90
4293;DHT22;2160;51.172;6.808;2023-01-30T05:26:55;8.00;99.90
4293;DHT22;2160;51.172;6.808;2023-01-30T05:29:22;8.00;99.90
4293;DHT22;2160;51.172;6.808;2023-01-30T05:31:49;8.00;99.90
4293;DHT22;2160;51.172;6.808;2023-01-30T05:34:16;7.90;99.90
4293;DHT22;2160;51.172;6.808;2023-01-30T05:36:44;7.90;99.90
4293;DHT22;2160;51.172;6.808;2023-01-30T05:39:11;8.00;99.90
4293;DHT22;2160;51.172;6.808;2023-01-30T05:41:39;8.00;99.90
4293;DHT22;2160;51.172;6.808;2023-01-30T05:44:05;8.10;99.90
4293;DHT22;2160;51.172;6.808;2023-01-30T05:46:32;8.00;99.90
4293;DHT22;2160;51.172;6.808;2023-01-30T05:48:59;7.90;99.90
4293;DHT22;2160;51.172;6.808;2023-01-30T05:51:29;7.90;99.90
4293;DHT22;2160;51.172;6.808;2023-01-30T05:53:57;8.00;99.90
4293;DHT22;2160;51.172;6.808;2023-01-30T05:56:24;8.10;99.90
4293;DHT22;2160;51.172;6.808;2023-01-30T05:58:52;8.30;99.90
4293;DHT22;2160;51.172;6.808;2023-01-30T06:01:20;8.10;99.90
4293;DHT22;2160;51.172;6.808;2023-01-30T06:03:48;8.10;99.90
4293;DHT22;2160;51.172;6.808;2023-01-30T06:06:15;8.20;99.90
4293;DHT22;2160;51.172;6.808;2023-01-30T06:08:42;8.20;99.90
4293;DHT22;2160;51.172;6.808;2023-01-30T06:11:13;8.30;99.90
4293;DHT22;2160;51.172;6.808;2023-01-30T06:13:40;8.40;99.90
4293;DHT22;2160;51.172;6.808;2023-01-30T06:16:09;8.50;99.90
4293;DHT22;2160;51.172;6.808;2023-01-30T06:18:37;8.40;99.90
4293;DHT22;2160;51.172;6.808;2023-01-30T06:21:06;8.30;99.90
4293;DHT22;2160;51.172;6.808;2023-01-30T06:23:34;8.40;99.90
4293;DHT22;2160;51.172;6.808;2023-01-30T06:26:01;8.50;99.90
4293;DHT22;2160;51.172;6.808;2023-01-30T06:28:29;8.60;99.90
4293;DHT22;2160;51.172;6.808;2023-01-30T06:30:56;8.50;99.90
4293;DHT22;2160;51.172;6.808;2023-01-30T06:33:23;8.60;99.90
4293;DHT22;2160;51.172;6.808;2023-01-30T06:35:51;8.60;99.90
4293;DHT22;2160;51.172;6.808;2023-01-30T06:38:18;8.60;99.90
4293;DHT22;2160;51.172;6.808;2023-01-30T06:40:46;8.50;99.90
4293;DHT22;2160;51.172;6.808;2023-01-30T06:43:14;8.60;99.90
4293;DHT22;2160;51.172;6.808;2023-01-30T06:45:42;8.40;99.90
4293;DHT22;2160;51.172;6.808;2023-01-30T06:48:10;8.40;99.90
4293;DHT22;2160;51.172;6.808;2023-01-30T06:50:37;8.40;99.90
4293;DHT22;2160;51.172;6.808;2023-01-30T06:53:05;8.40;99.90
4293;DHT22;2160;51.172;6.808;2023-01-30T06:55:33;8.50;99.90
4293;DHT22;2160;51.172;6.808;2023-01-30T06:58:03;8.60;99.90
4293;DHT22;2160;51.172;6.808;2023-01-30T07:00:30;8.60;99.90
4293;DHT22;2160;51.172;6.808;2023-01-30T07:02:59;8.60;99.90
4293;DHT22;2160;51.172;6.808;2023-01-30T07:05:26;8.70;99.90
4293;DHT22;2160;51.172;6.808;2023-01-30T07:07:54;8.70;99.90
4293;DHT22;2160;51.172;6.808;2023-01-30T07:10:22;8.90;99.90
4293;DHT22;2160;51.172;6.808;2023-01-30T07:12:50;8.90;99.90
4293;DHT22;2160;51.172;6.808;2023-01-30T07:15:18;9.00;99.90
4293;DHT22;2160;51.172;6.808;2023-01-30T07:17:45;9.10;99.90
4293;DHT22;2160;51.172;6.808;2023-01-30T07:20:13;9.00;99.90
4293;DHT22;2160;51.172;6.808;2023-01-30T07:22:40;9.10;99.90
4293;DHT22;2160;51.172;6.808;2023-01-30T07:25:08;9.10;99.90
4293;DHT22;2160;51.172;6.808;2023-01-30T07:27:35;9.10;99.90
4293;DHT22;2160;51.172;6.808;2023-01-30T07:30:02;9.10;99.90
4293;DHT22;2160;51.172;6.808;2023-01-30T07:32:29;9.00;99.90
4293;DHT22;2160;51.172;6.808;2023-01-30T07:34:56;8.90;99.90
4293;DHT22;2160;51.172;6.808;2023-01-30T07:37:24;9.00;99.90
4293;DHT22;2160;51.172;6.808;2023-01-30T07:39:51;9.00;99.90
4293;DHT22;2160;51.172;6.808;2023-01-30T07:42:18;9.10;99.90
4293;DHT22;2160;51.172;6.808;2023-01-30T07:44:45;9.20;99.90
4293;DHT22;2160;51.172;6.808;2023-01-30T07:47:12;9.10;99.90
4293;DHT22;2160;51.172;6.808;2023-01-30T07:49:39;9.20;99.90
4293;DHT22;2160;51.172;6.808;2023-01-30T07:52:06;9.30;99.90
4293;DHT22;2160;51.172;6.808;2023-01-30T07:54:35;9.20;99.90
4293;DHT22;2160;51.172;6.808;2023-01-30T07:57:03;9.20;99.90
4293;DHT22;2160;51.172;6.808;2023-01-30T07:59:29;9.20;99.90
4293;DHT22;2160;51.172;6.808;2023-01-30T08:01:56;9.10;99.90
4293;DHT22;2160;51.172;6.808;2023-01-30T08:04:24;9.10;99.90
4293;DHT22;2160;51.172;6.808;2023-01-30T08:06:51;9.00;99.90
4293;DHT22;2160;51.172;6.808;2023-01-30T08:09:18;9.10;99.90
4293;DHT22;2160;51.172;6.808;2023-01-30T08:11:46;9.00;99.90
4293;DHT22;2160;51.172;6.808;2023-01-30T08:14:13;9.00;99.90
4293;DHT22;2160;51.172;6.808;2023-01-30T08:16:40;8.90;99.90
4293;DHT22;2160;51.172;6.808;2023-01-30T08:19:07;9.00;99.90
4293;DHT22;2160;51.172;6.808;2023-01-30T08:21:34;9.10;99.90
4293;DHT22;2160;51.172;6.808;2023-01-30T08:24:01;9.30;99.90
4293;DHT22;2160;51.172;6.808;2023-01-30T08:26:28;9.00;99.90
4293;DHT22;2160;51.172;6.808;2023-01-30T08:28:56;9.00;99.90
4293;DHT22;2160;51.172;6.808;2023-01-30T08:31:23;9.00;99.90
4293;DHT22;2160;51.172;6.808;2023-01-30T08:33:50;9.00;99.90
4293;DHT22;2160;51.172;6.808;2023-01-30T08:36:17;9.00;99.90
4293;DHT22;2160;51.172;6.808;2023-01-30T08:38:44;9.00;99.90
4293;DHT22;2160;51.172;6.808;2023-01-30T08:41:11;9.10;99.90
4293;DHT22;2160;51.172;6.808;2023-01-30T08:43:38;9.10;99.90
4293;DHT22;2160;51.172;6.808;2023-01-30T08:46:06;9.00;99.90
4293;DHT22;2160;51.172;6.808;2023-01-30T08:48:33;9.10;99.90
4293;DHT22;2160;51.172;6.808;2023-01-30T08:51:02;9.20;99.90
4293;DHT22;2160;51.172;6.808;2023-01-30T08:53:29;9.20;99.90
4293;DHT22;2160;51.172;6.808;2023-01-30T08:55:56;9.40;99.90
4293;DHT22;2160;51.172;6.808;2023-01-30T08:58:23;9.60;99.90
4293;DHT22;2160;51.172;6.808;2023-01-30T09:00:50;9.50;99.90
4293;DHT22;2160;51.172;6.808;2023-01-30T09:03:19;9.60;99.90
4293;DHT22;2160;51.172;6.808;2023-01-30T09:05:46;9.40;99.90
4293;DHT22;2160;51.172;6.808;2023-01-30T09:08:13;9.30;99.90
4293;DHT22;2160;51.172;6.808;2023-01-30T09:10:39;9.40;99.90
4293;DHT22;2160;51.172;6.808;2023-01-30T09:13:08;9.30;99.90
4293;DHT22;2160;51.172;6.808;2023-01-30T09:15:35;9.30;99.90
4293;DHT22;2160;51.172;6.808;2023-01-30T09:18:02;9.30;99.90
4293;DHT22;2160;51.172;6.808;2023-01-30T09:20:31;9.30;99.90
4293;DHT22;2160;51.172;6.808;2023-01-30T09:22:58;9.30;99.90
4293;DHT22;2160;51.172;6.808;2023-01-30T09:25:26;9.30;99.90
4293;DHT22;2160;51.172;6.808;2023-01-30T09:27:53;9.40;99.90
4293;DHT22;2160;51.172;6.808;2023-01-30T09:30:20;9.50;99.90
4293;DHT22;2160;51.172;6.808;2023-01-30T09:32:47;9.40;99.90
4293;DHT22;2160;51.172;6.808;2023-01-30T09:35:14;9.30;99.90
4293;DHT22;2160;51.172;6.808;2023-01-30T09:37:47;9.30;99.90
4293;DHT22;2160;51.172;6.808;2023-01-30T09:40:17;9.30;99.90
4293;DHT22;2160;51.172;6.808;2023-01-30T09:43:04;9.30;99.90
4293;DHT22;2160;51.172;6.808;2023-01-30T09:45:46;9.40;99.90
4293;DHT22;2160;51.172;6.808;2023-01-30T09:48:20;9.20;99.90
4293;DHT22;2160;51.172;6.808;2023-01-30T09:51:10;9.30;99.90
4293;DHT22;2160;51.172;6.808;2023-01-30T09:53:53;9.40;99.90
4293;DHT22;2160;51.172;6.808;2023-01-30T09:56:24;9.30;99.90
4293;DHT22;2160;51.172;6.808;2023-01-30T09:58:53;9.40;99.90
4293;DHT22;2160;51.172;6.808;2023-01-30T10:01:25;9.50;99.90
4293;DHT22;2160;51.172;6.808;2023-01-30T10:04:01;9.60;99.90
4293;DHT22;2160;51.172;6.808;2023-01-30T10:06:33;9.70;99.90
4293;DHT22;2160;51.172;6.808;2023-01-30T10:09:08;9.50;99.90
4293;DHT22;2160;51.172;6.808;2023-01-30T10:11:53;9.40;99.90
4293;DHT22;2160;51.172;6.808;2023-01-30T10:14:36;9.10;99.90
4293;DHT22;2160;51.172;6.808;2023-01-30T10:17:22;9.20;99.90
4293;DHT22;2160;51.172;6.808;2023-01-30T10:20:02;9.20;99.90
4293;DHT22;2160;51.172;6.808;2023-01-30T10:22:40;9.20;99.90
4293;DHT22;2160;51.172;6.808;2023-01-30T10:25:19;9.30;99.90
4293;DHT22;2160;51.172;6.808;2023-01-30T10:27:55;9.10;99.90
4293;DHT22;2160;51.172;6.808;2023-01-30T10:30:23;9.10;99.90
4293;DHT22;2160;51.172;6.808;2023-01-30T10:32:54;9.40;99.90
4293;DHT22;2160;51.172;6.808;2023-01-30T10:35:26;9.30;99.90
4293;DHT22;2160;51.172;6.808;2023-01-30T10:37:58;9.40;99.90
4293;DHT22;2160;51.172;6.808;2023-01-30T10:40:34;9.50;99.90
4293;DHT22;2160;51.172;6.808;2023-01-30T10:43:12;9.30;99.90
4293;DHT22;2160;51.172;6.808;2023-01-30T10:45:44;9.20;99.90
4293;DHT22;2160;51.172;6.808;2023-01-30T10:48:25;9.60;99.90
4293;DHT22;2160;51.172;6.808;2023-01-30T10:50:58;9.50;99.90
4293;DHT22;2160;51.172;6.808;2023-01-30T10:53:35;9.20;99.90
4293;DHT22;2160;51.172;6.808;2023-01-30T10:56:11;9.30;99.90
4293;DHT22;2160;51.172;6.808;2023-01-30T10:58:45;9.40;99.90
4293;DHT22;2160;51.172;6.808;2023-01-30T11:01:21;9.30;99.90
4293;DHT22;2160;51.172;6.808;2023-01-30T11:03:54;9.40;99.90
4293;DHT22;2160;51.172;6.808;2023-01-30T11:06:24;9.30;99.90
4293;DHT22;2160;51.172;6.808;2023-01-30T11:08:51;9.40;99.90
4293;DHT22;2160;51.172;6.808;2023-01-30T11:11:27;9.40;99.90
4293;DHT22;2160;51.172;6.808;2023-01-30T11:14:03;9.30;99.90
4293;DHT22;2160;51.172;6.808;2023-01-30T11:16:30;9.40;99.90
4293;DHT22;2160;51.172;6.808;2023-01-30T11:19:04;9.30;99.90
4293;DHT22;2160;51.172;6.808;2023-01-30T11:21:31;9.40;99.90
4293;DHT22;2160;51.172;6.808;2023-01-30T11:24:04;9.40;99.90
4293;DHT22;2160;51.172;6.808;2023-01-30T11:26:38;9.40;99.90
4293;DHT22;2160;51.172;6.808;2023-01-30T11:29:24;9.50;99.90
4293;DHT22;2160;51.172;6.808;2023-01-30T11:31:53;9.40;99.90
4293;DHT22;2160;51.172;6.808;2023-01-30T11:34:22;9.50;99.90
4293;DHT22;2160;51.172;6.808;2023-01-30T11:36:50;9.70;99.90
4293;DHT22;2160;51.172;6.808;2023-01-30T11:39:22;9.90;99.90
4293;DHT22;2160;51.172;6.808;2023-01-30T11:42:02;10.00;99.90
4293;DHT22;2160;51.172;6.808;2023-01-30T11:44:32;9.90;99.90
4293;DHT22;2160;51.172;6.808;2023-01-30T11:47:02;9.90;99.90
4293;DHT22;2160;51.172;6.808;2023-01-30T11:49:32;9.90;99.90
4293;DHT22;2160;51.172;6.808;2023-01-30T11:52:02;9.70;99.90
4293;DHT22;2160;51.172;6.808;2023-01-30T11:54:31;9.90;99.90
4293;DHT22;2160;51.172;6.808;2023-01-30T11:57:03;9.60;99.90
4293;DHT22;2160;51.172;6.808;2023-01-30T11:59:34;9.60;99.90
4293;DHT22;2160;51.172;6.808;2023-01-30T12:02:04;9.50;99.90
4293;DHT22;2160;51.172;6.808;2023-01-30T12:04:35;9.60;99.90
4293;DHT22;2160;51.172;6.808;2023-01-30T12:07:09;9.40;99.90
4293;DHT22;2160;51.172;6.808;2023-01-30T12:09:40;9.30;99.90
4293;DHT22;2160;51.172;6.808;2023-01-30T12:12:28;9.20;99.90
4293;DHT22;2160;51.172;6.808;2023-01-30T12:15:12;9.50;99.90
4293;DHT22;2160;51.172;6.808;2023-01-30T12:17:45;9.50;99.90
4293;DHT22;2160;51.172;6.808;2023-01-30T12:20:16;9.60;99.90
4293;DHT22;2160;51.172;6.808;2023-01-30T12:22:51;9.50;99.90
4293;DHT22;2160;51.172;6.808;2023-01-30T12:25:24;9.40;99.90
4293;DHT22;2160;51.172;6.808;2023-01-30T12:28:02;9.40;99.90
4293;DHT22;2160;51.172;6.808;2023-01-30T12:30:34;9.60;99.90
4293;DHT22;2160;51.172;6.808;2023-01-30T12:33:03;9.50;99.90
4293;DHT22;2160;51.172;6.808;2023-01-30T12:35:46;9.60;99.90
4293;DHT22;2160;51.172;6.808;2023-01-30T12:38:25;9.70;99.90
4293;DHT22;2160;51.172;6.808;2023-01-30T12:41:06;9.80;99.90
4293;DHT22;2160;51.172;6.808;2023-01-30T12:44:00;9.90;99.90
4293;DHT22;2160;51.172;6.808;2023-01-30T12:46:42;9.80;99.90
4293;DHT22;2160;51.172;6.808;2023-01-30T12:49:34;9.90;99.90
4293;DHT22;2160;51.172;6.808;2023-01-30T12:52:24;10.00;99.90
4293;DHT22;2160;51.172;6.808;2023-01-30T12:54:59;10.00;99.90
4293;DHT22;2160;51.172;6.808;2023-01-30T12:57:34;10.10;99.90
4293;DHT22;2160;51.172;6.808;2023-01-30T13:00:25;10.00;99.90
4293;DHT22;2160;51.172;6.808;2023-01-30T13:03:08;9.90;99.90
4293;DHT22;2160;51.172;6.808;2023-01-30T13:05:42;9.80;99.90
4293;DHT22;2160;51.172;6.808;2023-01-30T13:08:23;9.90;99.90
4293;DHT22;2160;51.172;6.808;2023-01-30T13:10:57;10.10;99.90
4293;DHT22;2160;51.172;6.808;2023-01-30T13:13:33;10.20;99.90
4293;DHT22;2160;51.172;6.808;2023-01-30T13:16:12;10.10;99.90
4293;DHT22;2160;51.172;6.808;2023-01-30T13:18:44;9.90;99.90
4293;DHT22;2160;51.172;6.808;2023-01-30T13:21:15;10.00;99.90
4293;DHT22;2160;51.172;6.808;2023-01-30T13:23:56;10.20;99.90
4293;DHT22;2160;51.172;6.808;2023-01-30T13:26:28;10.10;99.90
4293;DHT22;2160;51.172;6.808;2023-01-30T13:29:01;10.20;99.90
4293;DHT22;2160;51.172;6.808;2023-01-30T13:31:31;10.10;99.90
4293;DHT22;2160;51.172;6.808;2023-01-30T13:34:05;10.10;99.90
4293;DHT22;2160;51.172;6.808;2023-01-30T13:36:40;10.00;99.90
4293;DHT22;2160;51.172;6.808;2023-01-30T13:39:13;10.10;99.90
4293;DHT22;2160;51.172;6.808;2023-01-30T13:41:44;10.00;99.90
4293;DHT22;2160;51.172;6.808;2023-01-30T13:44:16;10.10;99.90
4293;DHT22;2160;51.172;6.808;2023-01-30T13:46:45;10.00;99.90
4293;DHT22;2160;51.172;6.808;2023-01-30T13:49:20;10.10;99.90
4293;DHT22;2160;51.172;6.808;2023-01-30T13:51:53;9.90;99.90
4293;DHT22;2160;51.172;6.808;2023-01-30T13:54:37;10.00;99.90
4293;DHT22;2160;51.172;6.808;2023-01-30T13:57:17;10.10;99.90
4293;DHT22;2160;51.172;6.808;2023-01-30T14:00:08;10.00;99.90
4293;DHT22;2160;51.172;6.808;2023-01-30T14:06:32;10.20;99.90
4293;DHT22;2160;51.172;6.808;2023-01-30T14:09:02;10.20;99.90
4293;DHT22;2160;51.172;6.808;2023-01-30T14:11:41;10.40;99.90
4293;DHT22;2160;51.172;6.808;2023-01-30T14:14:27;10.40;99.90
4293;DHT22;2160;51.172;6.808;2023-01-30T14:17:07;10.10;99.90
4293;DHT22;2160;51.172;6.808;2023-01-30T14:19:56;10.10;99.90
4293;DHT22;2160;51.172;6.808;2023-01-30T14:22:30;10.40;99.90
4293;DHT22;2160;51.172;6.808;2023-01-30T14:40:29;10.00;99.90
4293;DHT22;2160;51.172;6.808;2023-01-30T14:46:43;10.10;99.90
4293;DHT22;2160;51.172;6.808;2023-01-30T14:49:30;10.30;99.90
4293;DHT22;2160;51.172;6.808;2023-01-30T14:51:58;10.10;99.90
4293;DHT22;2160;51.172;6.808;2023-01-30T14:54:46;10.00;99.90
4293;DHT22;2160;51.172;6.808;2023-01-30T14:57:19;10.10;99.90
4293;DHT22;2160;51.172;6.808;2023-01-30T14:59:56;10.20;99.90
4293;DHT22;2160;51.172;6.808;2023-01-30T15:02:26;10.10;99.90
4293;DHT22;2160;51.172;6.808;2023-01-30T15:05:01;10.30;99.90
4293;DHT22;2160;51.172;6.808;2023-01-30T15:07:35;10.30;99.90
4293;DHT22;2160;51.172;6.808;2023-01-30T15:10:05;10.20;99.90
4293;DHT22;2160;51.172;6.808;2023-01-30T15:13:00;9.90;99.90
4293;DHT22;2160;51.172;6.808;2023-01-30T15:15:36;9.70;99.90
4293;DHT22;2160;51.172;6.808;2023-01-30T15:18:29;9.70;99.90
4293;DHT22;2160;51.172;6.808;2023-01-30T15:21:14;9.80;99.90
4293;DHT22;2160;51.172;6.808;2023-01-30T15:24:02;9.90;99.90
4293;DHT22;2160;51.172;6.808;2023-01-30T15:26:43;9.60;99.90
4293;DHT22;2160;51.172;6.808;2023-01-30T15:29:29;9.70;99.90
4293;DHT22;2160;51.172;6.808;2023-01-30T15:32:00;9.90;99.90
4293;DHT22;2160;51.172;6.808;2023-01-30T15:34:28;10.10;99.90
4293;DHT22;2160;51.172;6.808;2023-01-30T15:36:56;10.20;99.90
4293;DHT22;2160;51.172;6.808;2023-01-30T15:39:24;10.10;99.90
4293;DHT22;2160;51.172;6.808;2023-01-30T15:41:55;10.00;99.90
4293;DHT22;2160;51.172;6.808;2023-01-30T15:44:41;10.00;99.90
4293;DHT22;2160;51.172;6.808;2023-01-30T15:47:26;10.00;99.90
4293;DHT22;2160;51.172;6.808;2023-01-30T15:50:00;10.10;99.90
4293;DHT22;2160;51.172;6.808;2023-01-30T15:52:36;9.90;99.90
4293;DHT22;2160;51.172;6.808;2023-01-30T15:55:06;9.70;99.90
4293;DHT22;2160;51.172;6.808;2023-01-30T15:57:35;9.60;99.90
4293;DHT22;2160;51.172;6.808;2023-01-30T16:00:17;9.40;99.90
4293;DHT22;2160;51.172;6.808;2023-01-30T16:02:45;9.60;99.90
4293;DHT22;2160;51.172;6.808;2023-01-30T16:05:16;9.50;99.90
4293;DHT22;2160;51.172;6.808;2023-01-30T16:07:45;9.50;99.90
4293;DHT22;2160;51.172;6.808;2023-01-30T16:10:15;9.70;99.90
4293;DHT22;2160;51.172;6.808;2023-01-30T16:12:42;9.70;99.90
4293;DHT22;2160;51.172;6.808;2023-01-30T16:15:24;9.70;99.90
4293;DHT22;2160;51.172;6.808;2023-01-30T16:17:58;9.70;99.90
4293;DHT22;2160;51.172;6.808;2023-01-30T16:20:28;9.70;99.90
4293;DHT22;2160;51.172;6.808;2023-01-30T16:22:58;9.80;99.90
4293;DHT22;2160;51.172;6.808;2023-01-30T16:25:26;9.80;99.90
4293;DHT22;2160;51.172;6.808;2023-01-30T16:27:59;9.90;99.90
4293;DHT22;2160;51.172;6.808;2023-01-30T16:30:28;9.80;99.90
4293;DHT22;2160;51.172;6.808;2023-01-30T16:32:56;9.70;99.90
4293;DHT22;2160;51.172;6.808;2023-01-30T16:35:30;9.70;99.90
4293;DHT22;2160;51.172;6.808;2023-01-30T16:38:00;9.70;99.90
4293;DHT22;2160;51.172;6.808;2023-01-30T16:40:41;9.60;99.90
4293;DHT22;2160;51.172;6.808;2023-01-30T16:43:16;9.50;99.90
4293;DHT22;2160;51.172;6.808;2023-01-30T16:48:45;9.70;99.90
4293;DHT22;2160;51.172;6.808;2023-01-30T16:51:17;9.40;99.90
4293;DHT22;2160;51.172;6.808;2023-01-30T16:53:50;9.70;99.90
4293;DHT22;2160;51.172;6.808;2023-01-30T16:56:18;9.70;99.90
4293;DHT22;2160;51.172;6.808;2023-01-30T16:58:49;9.50;99.90
4293;DHT22;2160;51.172;6.808;2023-01-30T17:01:17;9.50;99.90
4293;DHT22;2160;51.172;6.808;2023-01-30T17:03:56;9.60;99.90
4293;DHT22;2160;51.172;6.808;2023-01-30T17:06:30;9.50;99.90
4293;DHT22;2160;51.172;6.808;2023-01-30T17:08:59;9.70;99.90
4293;DHT22;2160;51.172;6.808;2023-01-30T17:11:30;9.40;99.90
4293;DHT22;2160;51.172;6.808;2023-01-30T17:14:16;9.50;99.90
4293;DHT22;2160;51.172;6.808;2023-01-30T17:16:44;9.50;99.90
4293;DHT22;2160;51.172;6.808;2023-01-30T17:19:13;9.70;99.90
4293;DHT22;2160;51.172;6.808;2023-01-30T17:21:46;9.60;99.90
4293;DHT22;2160;51.172;6.808;2023-01-30T17:24:15;9.40;99.90
4293;DHT22;2160;51.172;6.808;2023-01-30T17:26:43;9.30;99.90
4293;DHT22;2160;51.172;6.808;2023-01-30T17:29:12;9.40;99.90
4293;DHT22;2160;51.172;6.808;2023-01-30T17:31:44;9.30;99.90
4293;DHT22;2160;51.172;6.808;2023-01-30T17:34:17;9.40;99.90
4293;DHT22;2160;51.172;6.808;2023-01-30T17:36:48;9.50;99.90
4293;DHT22;2160;51.172;6.808;2023-01-30T17:39:22;9.40;99.90
4293;DHT22;2160;51.172;6.808;2023-01-30T17:41:53;9.30;99.90
4293;DHT22;2160;51.172;6.808;2023-01-30T17:44:28;9.20;99.90
4293;DHT22;2160;51.172;6.808;2023-01-30T17:46:57;9.20;99.90
4293;DHT22;2160;51.172;6.808;2023-01-30T17:49:31;9.40;99.90
4293;DHT22;2160;51.172;6.808;2023-01-30T17:52:15;9.30;99.90
4293;DHT22;2160;51.172;6.808;2023-01-30T17:54:45;9.20;99.90
4293;DHT22;2160;51.172;6.808;2023-01-30T17:57:13;9.40;99.90
4293;DHT22;2160;51.172;6.808;2023-01-30T17:59:40;9.50;99.90
4293;DHT22;2160;51.172;6.808;2023-01-30T18:02:08;9.20;99.90
4293;DHT22;2160;51.172;6.808;2023-01-30T18:04:37;9.50;99.90
4293;DHT22;2160;51.172;6.808;2023-01-30T18:07:05;9.40;99.90
4293;DHT22;2160;51.172;6.808;2023-01-30T18:09:34;9.50;99.90
4293;DHT22;2160;51.172;6.808;2023-01-30T18:12:02;9.40;99.90
4293;DHT22;2160;51.172;6.808;2023-01-30T18:14:29;9.20;99.90
4293;DHT22;2160;51.172;6.808;2023-01-30T18:16:56;9.30;99.90
4293;DHT22;2160;51.172;6.808;2023-01-30T18:19:26;9.50;99.90
4293;DHT22;2160;51.172;6.808;2023-01-30T18:21:55;9.60;99.90
4293;DHT22;2160;51.172;6.808;2023-01-30T18:24:23;9.50;99.90
4293;DHT22;2160;51.172;6.808;2023-01-30T18:26:50;9.80;99.90
4293;DHT22;2160;51.172;6.808;2023-01-30T18:29:17;9.40;99.90
4293;DHT22;2160;51.172;6.808;2023-01-30T18:31:45;9.30;99.90
4293;DHT22;2160;51.172;6.808;2023-01-30T18:34:13;9.10;99.90
4293;DHT22;2160;51.172;6.808;2023-01-30T18:36:41;9.10;99.90
4293;DHT22;2160;51.172;6.808;2023-01-30T18:39:10;9.10;99.90
4293;DHT22;2160;51.172;6.808;2023-01-30T18:41:38;9.20;99.90
4293;DHT22;2160;51.172;6.808;2023-01-30T18:44:05;9.20;99.90
4293;DHT22;2160;51.172;6.808;2023-01-30T18:46:34;9.20;99.90
4293;DHT22;2160;51.172;6.808;2023-01-30T18:49:01;9.30;99.90
4293;DHT22;2160;51.172;6.808;2023-01-30T18:51:29;9.10;99.90
4293;DHT22;2160;51.172;6.808;2023-01-30T18:53:56;9.10;99.90
4293;DHT22;2160;51.172;6.808;2023-01-30T18:56:27;9.10;99.90
4293;DHT22;2160;51.172;6.808;2023-01-30T18:58:56;9.00;99.90
4293;DHT22;2160;51.172;6.808;2023-01-30T19:01:25;9.00;99.90
4293;DHT22;2160;51.172;6.808;2023-01-30T19:03:53;9.00;99.90
4293;DHT22;2160;51.172;6.808;2023-01-30T19:06:20;8.80;99.90
4293;DHT22;2160;51.172;6.808;2023-01-30T19:08:47;8.70;99.90
4293;DHT22;2160;51.172;6.808;2023-01-30T19:11:17;8.70;99.90
4293;DHT22;2160;51.172;6.808;2023-01-30T19:14:04;8.60;99.90
4293;DHT22;2160;51.172;6.808;2023-01-30T19:16:33;8.70;99.90
4293;DHT22;2160;51.172;6.808;2023-01-30T19:19:01;8.70;99.90
4293;DHT22;2160;51.172;6.808;2023-01-30T19:21:31;8.60;99.90
4293;DHT22;2160;51.172;6.808;2023-01-30T19:24:01;8.60;99.90
4293;DHT22;2160;51.172;6.808;2023-01-30T19:26:28;8.50;99.90
4293;DHT22;2160;51.172;6.808;2023-01-30T19:28:55;8.50;99.90
4293;DHT22;2160;51.172;6.808;2023-01-30T19:31:24;8.40;99.90
4293;DHT22;2160;51.172;6.808;2023-01-30T19:33:55;8.60;99.90
4293;DHT22;2160;51.172;6.808;2023-01-30T19:36:24;8.70;99.90
4293;DHT22;2160;51.172;6.808;2023-01-30T19:38:52;8.50;99.90
4293;DHT22;2160;51.172;6.808;2023-01-30T19:41:20;8.50;99.90
4293;DHT22;2160;51.172;6.808;2023-01-30T19:43:49;8.40;99.90
4293;DHT22;2160;51.172;6.808;2023-01-30T19:46:16;8.50;99.90
4293;DHT22;2160;51.172;6.808;2023-01-30T19:48:46;8.40;99.90
4293;DHT22;2160;51.172;6.808;2023-01-30T19:51:14;8.50;99.90
4293;DHT22;2160;51.172;6.808;2023-01-30T19:53:44;8.70;99.90
4293;DHT22;2160;51.172;6.808;2023-01-30T19:56:12;8.40;99.90
4293;DHT22;2160;51.172;6.808;2023-01-30T19:58:39;8.40;99.90
4293;DHT22;2160;51.172;6.808;2023-01-30T20:01:08;8.30;99.90
4293;DHT22;2160;51.172;6.808;2023-01-30T20:03:36;8.40;99.90
4293;DHT22;2160;51.172;6.808;2023-01-30T20:06:11;8.30;99.90
4293;DHT22;2160;51.172;6.808;2023-01-30T20:08:38;8.20;99.90
4293;DHT22;2160;51.172;6.808;2023-01-30T20:11:07;8.20;99.90
4293;DHT22;2160;51.172;6.808;2023-01-30T20:13:34;8.20;99.90
4293;DHT22;2160;51.172;6.808;2023-01-30T20:16:03;8.10;99.90
4293;DHT22;2160;51.172;6.808;2023-01-30T20:18:30;8.10;99.90
4293;DHT22;2160;51.172;6.808;2023-01-30T20:21:04;8.10;99.90
4293;DHT22;2160;51.172;6.808;2023-01-30T20:23:32;8.00;99.90
4293;DHT22;2160;51.172;6.808;2023-01-30T20:26:02;8.10;99.90
4293;DHT22;2160;51.172;6.808;2023-01-30T20:28:29;8.20;99.90
4293;DHT22;2160;51.172;6.808;2023-01-30T20:30:56;8.20;99.90
4293;DHT22;2160;51.172;6.808;2023-01-30T20:33:23;8.00;99.90
4293;DHT22;2160;51.172;6.808;2023-01-30T20:35:53;8.10;99.90
4293;DHT22;2160;51.172;6.808;2023-01-30T20:38:28;7.90;99.90
4293;DHT22;2160;51.172;6.808;2023-01-30T20:41:01;8.00;99.90
4293;DHT22;2160;51.172;6.808;2023-01-30T20:43:30;8.00;99.90
4293;DHT22;2160;51.172;6.808;2023-01-30T20:46:02;7.80;99.90
4293;DHT22;2160;51.172;6.808;2023-01-30T20:48:29;7.80;99.90
4293;DHT22;2160;51.172;6.808;2023-01-30T20:51:01;7.70;99.90
4293;DHT22;2160;51.172;6.808;2023-01-30T20:53:28;7.90;99.90
4293;DHT22;2160;51.172;6.808;2023-01-30T20:55:56;8.10;99.90
4293;DHT22;2160;51.172;6.808;2023-01-30T20:58:25;8.00;99.90
4293;DHT22;2160;51.172;6.808;2023-01-30T21:00:52;8.10;99.90
4293;DHT22;2160;51.172;6.808;2023-01-30T21:03:19;7.90;99.90
4293;DHT22;2160;51.172;6.808;2023-01-30T21:05:55;7.80;99.90
4293;DHT22;2160;51.172;6.808;2023-01-30T21:08:22;7.90;99.90
4293;DHT22;2160;51.172;6.808;2023-01-30T21:10:51;7.80;99.90
4293;DHT22;2160;51.172;6.808;2023-01-30T21:13:18;7.60;99.90
4293;DHT22;2160;51.172;6.808;2023-01-30T21:15:47;7.70;99.90
4293;DHT22;2160;51.172;6.808;2023-01-30T21:18:13;7.80;99.90
4293;DHT22;2160;51.172;6.808;2023-01-30T21:20:47;7.70;99.90
4293;DHT22;2160;51.172;6.808;2023-01-30T21:23:14;7.70;99.90
4293;DHT22;2160;51.172;6.808;2023-01-30T21:25:41;7.80;99.90
4293;DHT22;2160;51.172;6.808;2023-01-30T21:28:08;7.90;99.90
4293;DHT22;2160;51.172;6.808;2023-01-30T21:30:35;7.80;99.90
4293;DHT22;2160;51.172;6.808;2023-01-30T21:33:04;7.70;99.90
4293;DHT22;2160;51.172;6.808;2023-01-30T21:35:31;7.70;99.90
4293;DHT22;2160;51.172;6.808;2023-01-30T21:37:58;7.70;99.90
4293;DHT22;2160;51.172;6.808;2023-01-30T21:40:48;7.90;99.90
4293;DHT22;2160;51.172;6.808;2023-01-30T21:43:33;8.10;99.90
4293;DHT22;2160;51.172;6.808;2023-01-30T21:46:00;8.00;99.90
4293;DHT22;2160;51.172;6.808;2023-01-30T21:48:28;7.80;99.90
4293;DHT22;2160;51.172;6.808;2023-01-30T21:50:55;7.80;99.90
4293;DHT22;2160;51.172;6.808;2023-01-30T21:53:22;8.00;99.90
4293;DHT22;2160;51.172;6.808;2023-01-30T21:55:50;7.90;99.90
4293;DHT22;2160;51.172;6.808;2023-01-30T21:58:17;8.00;99.90
4293;DHT22;2160;51.172;6.808;2023-01-30T22:00:44;8.30;99.90
4293;DHT22;2160;51.172;6.808;2023-01-30T22:03:11;8.20;99.90
4293;DHT22;2160;51.172;6.808;2023-01-30T22:05:42;8.30;99.90
4293;DHT22;2160;51.172;6.808;2023-01-30T22:08:10;8.30;99.90